sensor_id;sensor_type;location;lat;lon;timestamp;P1;durP1;ratioP1;P2;durP2;ratioP2
81314;SDS011;72214;52.510;5.718;2023-08-24T00:00:41;4.97;;;1.90;;
81314;SDS011;72214;52.510;5.718;2023-08-24T00:03:11;4.60;;;2.15;;
81314;SDS011;72214;52.510;5.718;2023-08-24T00:05:43;7.40;;;2.00;;
81314;SDS011;72214;52.510;5.718;2023-08-24T00:08:12;5.03;;;2.03;;
81314;SDS011;72214;52.510;5.718;2023-08-24T00:10:43;4.82;;;2.50;;
81314;SDS011;72214;52.510;5.718;2023-08-24T00:13:13;11.55;;;2.28;;
81314;SDS011;72214;52.510;5.718;2023-08-24T00:15:42;5.15;;;2.00;;
81314;SDS011;72214;52.510;5.718;2023-08-24T00:18:13;3.78;;;2.20;;
81314;SDS011;72214;52.510;5.718;2023-08-24T00:20:46;9.18;;;2.50;;
81314;SDS011;72214;52.510;5.718;2023-08-24T00:23:16;3.47;;;2.42;;
81314;SDS011;72214;52.510;5.718;2023-08-24T00:25:45;4.45;;;2.38;;
81314;SDS011;72214;52.510;5.718;2023-08-24T00:28:14;4.00;;;2.20;;
81314;SDS011;72214;52.510;5.718;2023-08-24T00:30:44;3.00;;;2.08;;
81314;SDS011;72214;52.510;5.718;2023-08-24T00:33:13;4.30;;;2.38;;
81314;SDS011;72214;52.510;5.718;2023-08-24T00:35:42;6.13;;;2.28;;
81314;SDS011;72214;52.510;5.718;2023-08-24T00:38:14;11.32;;;2.45;;
81314;SDS011;72214;52.510;5.718;2023-08-24T00:40:43;3.55;;;2.25;;
81314;SDS011;72214;52.510;5.718;2023-08-24T00:43:12;7.53;;;2.85;;
81314;SDS011;72214;52.510;5.718;2023-08-24T00:45:42;3.70;;;2.40;;
81314;SDS011;72214;52.510;5.718;2023-08-24T00:48:11;3.50;;;2.88;;
81314;SDS011;72214;52.510;5.718;2023-08-24T00:50:40;5.63;;;2.45;;
81314;SDS011;72214;52.510;5.718;2023-08-24T00:53:10;7.72;;;2.85;;
81314;SDS011;72214;52.510;5.718;2023-08-24T00:55:44;4.03;;;2.45;;
81314;SDS011;72214;52.510;5.718;2023-08-24T00:58:14;5.10;;;2.33;;
81314;SDS011;72214;52.510;5.718;2023-08-24T01:00:46;4.28;;;2.45;;
81314;SDS011;72214;52.510;5.718;2023-08-24T01:03:16;4.07;;;2.38;;
81314;SDS011;72214;52.510;5.718;2023-08-24T01:05:45;7.20;;;2.70;;
81314;SDS011;72214;52.510;5.718;2023-08-24T01:08:17;6.78;;;2.53;;
81314;SDS011;72214;52.510;5.718;2023-08-24T01:10:48;3.22;;;2.28;;
81314;SDS011;72214;52.510;5.718;2023-08-24T01:13:24;4.40;;;2.13;;
81314;SDS011;72214;52.510;5.718;2023-08-24T01:16:00;7.15;;;2.92;;
81314;SDS011;72214;52.510;5.718;2023-08-24T01:18:37;7.47;;;2.50;;
81314;SDS011;72214;52.510;5.718;2023-08-24T01:21:08;5.68;;;2.30;;
81314;SDS011;72214;52.510;5.718;2023-08-24T01:23:43;4.35;;;2.20;;
81314;SDS011;72214;52.510;5.718;2023-08-24T01:26:20;6.35;;;2.85;;
81314;SDS011;72214;52.510;5.718;2023-08-24T01:28:50;6.63;;;2.80;;
81314;SDS011;72214;52.510;5.718;2023-08-24T01:31:19;4.70;;;2.40;;
81314;SDS011;72214;52.510;5.718;2023-08-24T01:33:49;4.32;;;2.55;;
81314;SDS011;72214;52.510;5.718;2023-08-24T01:36:18;7.78;;;2.70;;
81314;SDS011;72214;52.510;5.718;2023-08-24T01:38:55;4.30;;;2.83;;
81314;SDS011;72214;52.510;5.718;2023-08-24T01:41:35;7.60;;;2.33;;
81314;SDS011;72214;52.510;5.718;2023-08-24T01:44:09;6.72;;;2.63;;
81314;SDS011;72214;52.510;5.718;2023-08-24T01:46:40;3.92;;;2.67;;
81314;SDS011;72214;52.510;5.718;2023-08-24T01:49:12;6.68;;;2.63;;
81314;SDS011;72214;52.510;5.718;2023-08-24T01:51:42;4.55;;;2.85;;
81314;SDS011;72214;52.510;5.718;2023-08-24T01:54:13;5.68;;;2.83;;
81314;SDS011;72214;52.510;5.718;2023-08-24T01:56:45;3.83;;;2.78;;
81314;SDS011;72214;52.510;5.718;2023-08-24T01:59:14;5.97;;;2.70;;
81314;SDS011;72214;52.510;5.718;2023-08-24T02:01:43;6.25;;;2.58;;
81314;SDS011;72214;52.510;5.718;2023-08-24T02:04:13;5.65;;;2.58;;
81314;SDS011;72214;52.510;5.718;2023-08-24T02:06:42;6.70;;;2.72;;
81314;SDS011;72214;52.510;5.718;2023-08-24T02:09:11;6.35;;;3.47;;
81314;SDS011;72214;52.510;5.718;2023-08-24T02:11:40;6.47;;;3.05;;
81314;SDS011;72214;52.510;5.718;2023-08-24T02:14:12;6.43;;;2.90;;
81314;SDS011;72214;52.510;5.718;2023-08-24T02:16:41;9.77;;;3.63;;
81314;SDS011;72214;52.510;5.718;2023-08-24T02:19:11;4.63;;;3.25;;
81314;SDS011;72214;52.510;5.718;2023-08-24T02:21:40;5.25;;;3.20;;
81314;SDS011;72214;52.510;5.718;2023-08-24T02:24:10;3.90;;;2.70;;
81314;SDS011;72214;52.510;5.718;2023-08-24T02:26:39;7.38;;;3.10;;
81314;SDS011;72214;52.510;5.718;2023-08-24T02:29:08;4.85;;;2.75;;
81314;SDS011;72214;52.510;5.718;2023-08-24T02:31:40;6.43;;;3.72;;
81314;SDS011;72214;52.510;5.718;2023-08-24T02:34:09;4.82;;;2.97;;
81314;SDS011;72214;52.510;5.718;2023-08-24T02:36:39;7.10;;;3.28;;
81314;SDS011;72214;52.510;5.718;2023-08-24T02:39:08;5.85;;;3.80;;
81314;SDS011;72214;52.510;5.718;2023-08-24T02:41:37;5.53;;;3.75;;
81314;SDS011;72214;52.510;5.718;2023-08-24T02:44:06;7.97;;;3.70;;
81314;SDS011;72214;52.510;5.718;2023-08-24T02:46:39;6.10;;;2.90;;
81314;SDS011;72214;52.510;5.718;2023-08-24T02:49:08;5.90;;;3.25;;
81314;SDS011;72214;52.510;5.718;2023-08-24T02:51:38;5.35;;;3.45;;
81314;SDS011;72214;52.510;5.718;2023-08-24T02:54:07;4.80;;;2.97;;
81314;SDS011;72214;52.510;5.718;2023-08-24T02:56:36;6.68;;;3.60;;
81314;SDS011;72214;52.510;5.718;2023-08-24T02:59:05;7.25;;;3.40;;
81314;SDS011;72214;52.510;5.718;2023-08-24T03:01:35;5.40;;;3.65;;
81314;SDS011;72214;52.510;5.718;2023-08-24T03:04:09;6.00;;;2.92;;
81314;SDS011;72214;52.510;5.718;2023-08-24T03:06:38;5.78;;;3.03;;
81314;SDS011;72214;52.510;5.718;2023-08-24T03:09:07;5.15;;;2.95;;
81314;SDS011;72214;52.510;5.718;2023-08-24T03:11:36;5.60;;;2.92;;
81314;SDS011;72214;52.510;5.718;2023-08-24T03:14:05;3.78;;;2.97;;
81314;SDS011;72214;52.510;5.718;2023-08-24T03:16:36;8.43;;;3.88;;
81314;SDS011;72214;52.510;5.718;2023-08-24T03:19:09;3.58;;;2.45;;
81314;SDS011;72214;52.510;5.718;2023-08-24T03:21:40;9.55;;;3.25;;
81314;SDS011;72214;52.510;5.718;2023-08-24T03:24:09;7.82;;;3.00;;
81314;SDS011;72214;52.510;5.718;2023-08-24T03:26:39;6.28;;;3.03;;
81314;SDS011;72214;52.510;5.718;2023-08-24T03:29:08;5.60;;;3.03;;
81314;SDS011;72214;52.510;5.718;2023-08-24T03:31:37;4.38;;;3.22;;
81314;SDS011;72214;52.510;5.718;2023-08-24T03:34:09;21.33;;;4.03;;
81314;SDS011;72214;52.510;5.718;2023-08-24T03:36:38;4.25;;;2.97;;
81314;SDS011;72214;52.510;5.718;2023-08-24T03:39:07;7.07;;;3.28;;
81314;SDS011;72214;52.510;5.718;2023-08-24T03:41:37;8.70;;;3.53;;
81314;SDS011;72214;52.510;5.718;2023-08-24T03:44:06;3.70;;;3.00;;
81314;SDS011;72214;52.510;5.718;2023-08-24T03:46:36;7.43;;;3.45;;
81314;SDS011;72214;52.510;5.718;2023-08-24T03:49:05;5.97;;;3.05;;
81314;SDS011;72214;52.510;5.718;2023-08-24T03:51:37;6.30;;;3.60;;
81314;SDS011;72214;52.510;5.718;2023-08-24T03:54:06;7.35;;;3.47;;
81314;SDS011;72214;52.510;5.718;2023-08-24T03:56:35;5.40;;;2.85;;
81314;SDS011;72214;52.510;5.718;2023-08-24T03:59:04;5.18;;;2.97;;
81314;SDS011;72214;52.510;5.718;2023-08-24T04:01:34;7.22;;;3.20;;
81314;SDS011;72214;52.510;5.718;2023-08-24T04:04:04;4.97;;;3.17;;
81314;SDS011;72214;52.510;5.718;2023-08-24T04:06:33;6.15;;;3.00;;
81314;SDS011;72214;52.510;5.718;2023-08-24T04:09:05;6.30;;;2.90;;
81314;SDS011;72214;52.510;5.718;2023-08-24T04:11:35;5.53;;;2.85;;
81314;SDS011;72214;52.510;5.718;2023-08-24T04:14:04;4.05;;;3.55;;
81314;SDS011;72214;52.510;5.718;2023-08-24T04:16:34;5.88;;;3.30;;
81314;SDS011;72214;52.510;5.718;2023-08-24T04:19:03;8.07;;;3.10;;
81314;SDS011;72214;52.510;5.718;2023-08-24T04:21:32;6.07;;;3.53;;
81314;SDS011;72214;52.510;5.718;2023-08-24T04:24:04;5.68;;;3.53;;
81314;SDS011;72214;52.510;5.718;2023-08-24T04:26:34;5.20;;;2.78;;
81314;SDS011;72214;52.510;5.718;2023-08-24T04:29:03;7.70;;;3.03;;
81314;SDS011;72214;52.510;5.718;2023-08-24T04:31:32;4.65;;;2.90;;
81314;SDS011;72214;52.510;5.718;2023-08-24T04:34:03;6.50;;;3.17;;
81314;SDS011;72214;52.510;5.718;2023-08-24T04:36:32;4.68;;;3.00;;
81314;SDS011;72214;52.510;5.718;2023-08-24T04:39:04;4.75;;;3.17;;
81314;SDS011;72214;52.510;5.718;2023-08-24T04:41:33;3.72;;;3.13;;
81314;SDS011;72214;52.510;5.718;2023-08-24T04:44:02;5.50;;;2.70;;
81314;SDS011;72214;52.510;5.718;2023-08-24T04:46:33;5.07;;;3.10;;
81314;SDS011;72214;52.510;5.718;2023-08-24T04:49:03;8.18;;;3.00;;
81314;SDS011;72214;52.510;5.718;2023-08-24T04:51:32;13.95;;;2.88;;
81314;SDS011;72214;52.510;5.718;2023-08-24T04:54:04;4.72;;;2.90;;
81314;SDS011;72214;52.510;5.718;2023-08-24T04:56:33;6.82;;;3.22;;
81314;SDS011;72214;52.510;5.718;2023-08-24T04:59:03;6.68;;;3.47;;
81314;SDS011;72214;52.510;5.718;2023-08-24T05:01:33;5.15;;;3.03;;
81314;SDS011;72214;52.510;5.718;2023-08-24T05:04:02;4.93;;;3.05;;
81314;SDS011;72214;52.510;5.718;2023-08-24T05:06:32;6.03;;;3.47;;
81314;SDS011;72214;52.510;5.718;2023-08-24T05:09:04;8.82;;;3.22;;
81314;SDS011;72214;52.510;5.718;2023-08-24T05:11:34;5.60;;;2.58;;
81314;SDS011;72214;52.510;5.718;2023-08-24T05:14:03;5.90;;;3.10;;
81314;SDS011;72214;52.510;5.718;2023-08-24T05:16:32;5.30;;;3.00;;
81314;SDS011;72214;52.510;5.718;2023-08-24T05:19:01;6.07;;;3.42;;
81314;SDS011;72214;52.510;5.718;2023-08-24T05:21:31;4.63;;;3.15;;
81314;SDS011;72214;52.510;5.718;2023-08-24T05:24:00;4.70;;;2.63;;
81314;SDS011;72214;52.510;5.718;2023-08-24T05:26:32;5.63;;;3.42;;
81314;SDS011;72214;52.510;5.718;2023-08-24T05:29:01;7.95;;;3.28;;
81314;SDS011;72214;52.510;5.718;2023-08-24T05:31:31;5.63;;;3.25;;
81314;SDS011;72214;52.510;5.718;2023-08-24T05:34:00;5.75;;;3.20;;
81314;SDS011;72214;52.510;5.718;2023-08-24T05:36:29;4.93;;;3.10;;
81314;SDS011;72214;52.510;5.718;2023-08-24T05:38:58;5.20;;;2.85;;
81314;SDS011;72214;52.510;5.718;2023-08-24T05:41:30;4.70;;;2.90;;
81314;SDS011;72214;52.510;5.718;2023-08-24T05:43:59;7.93;;;3.35;;
81314;SDS011;72214;52.510;5.718;2023-08-24T05:46:29;3.95;;;2.65;;
81314;SDS011;72214;52.510;5.718;2023-08-24T05:48:58;5.20;;;3.15;;
81314;SDS011;72214;52.510;5.718;2023-08-24T05:51:28;5.90;;;3.08;;
81314;SDS011;72214;52.510;5.718;2023-08-24T05:53:57;7.82;;;2.85;;
81314;SDS011;72214;52.510;5.718;2023-08-24T05:56:26;5.93;;;3.35;;
81314;SDS011;72214;52.510;5.718;2023-08-24T05:58:58;7.07;;;2.92;;
81314;SDS011;72214;52.510;5.718;2023-08-24T06:01:27;7.15;;;3.03;;
81314;SDS011;72214;52.510;5.718;2023-08-24T06:03:56;7.78;;;2.90;;
81314;SDS011;72214;52.510;5.718;2023-08-24T06:06:25;5.05;;;3.10;;
81314;SDS011;72214;52.510;5.718;2023-08-24T06:08:54;5.57;;;2.88;;
81314;SDS011;72214;52.510;5.718;2023-08-24T06:11:24;7.47;;;2.95;;
81314;SDS011;72214;52.510;5.718;2023-08-24T06:13:53;3.72;;;2.40;;
81314;SDS011;72214;52.510;5.718;2023-08-24T06:16:25;7.28;;;2.60;;
81314;SDS011;72214;52.510;5.718;2023-08-24T06:18:54;7.10;;;2.95;;
81314;SDS011;72214;52.510;5.718;2023-08-24T06:21:23;6.25;;;2.40;;
81314;SDS011;72214;52.510;5.718;2023-08-24T06:23:52;5.35;;;3.03;;
81314;SDS011;72214;52.510;5.718;2023-08-24T06:26:21;7.68;;;3.30;;
81314;SDS011;72214;52.510;5.718;2023-08-24T06:28:51;3.95;;;2.58;;
81314;SDS011;72214;52.510;5.718;2023-08-24T06:31:21;7.13;;;3.03;;
81314;SDS011;72214;52.510;5.718;2023-08-24T06:33:53;5.78;;;2.97;;
81314;SDS011;72214;52.510;5.718;2023-08-24T06:36:23;5.80;;;3.20;;
81314;SDS011;72214;52.510;5.718;2023-08-24T06:38:52;8.52;;;3.47;;
81314;SDS011;72214;52.510;5.718;2023-08-24T06:41:21;3.95;;;2.58;;
81314;SDS011;72214;52.510;5.718;2023-08-24T06:43:50;9.73;;;3.25;;
81314;SDS011;72214;52.510;5.718;2023-08-24T06:46:21;7.45;;;3.08;;
81314;SDS011;72214;52.510;5.718;2023-08-24T06:48:53;6.57;;;3.20;;
81314;SDS011;72214;52.510;5.718;2023-08-24T06:51:22;8.90;;;3.67;;
81314;SDS011;72214;52.510;5.718;2023-08-24T06:53:51;9.30;;;3.72;;
81314;SDS011;72214;52.510;5.718;2023-08-24T06:56:20;6.30;;;2.95;;
81314;SDS011;72214;52.510;5.718;2023-08-24T06:58:49;4.65;;;2.85;;
81314;SDS011;72214;52.510;5.718;2023-08-24T07:01:18;6.25;;;2.97;;
81314;SDS011;72214;52.510;5.718;2023-08-24T07:03:48;5.72;;;3.45;;
81314;SDS011;72214;52.510;5.718;2023-08-24T07:06:19;6.40;;;2.92;;
81314;SDS011;72214;52.510;5.718;2023-08-24T07:08:50;6.97;;;3.45;;
81314;SDS011;72214;52.510;5.718;2023-08-24T07:11:19;3.92;;;3.15;;
81314;SDS011;72214;52.510;5.718;2023-08-24T07:13:49;3.92;;;3.25;;
81314;SDS011;72214;52.510;5.718;2023-08-24T07:16:19;7.30;;;3.60;;
81314;SDS011;72214;52.510;5.718;2023-08-24T07:18:48;4.63;;;3.00;;
81314;SDS011;72214;52.510;5.718;2023-08-24T07:21:20;7.75;;;3.60;;
81314;SDS011;72214;52.510;5.718;2023-08-24T07:23:49;7.22;;;3.80;;
81314;SDS011;72214;52.510;5.718;2023-08-24T07:26:19;5.43;;;3.05;;
81314;SDS011;72214;52.510;5.718;2023-08-24T07:28:48;7.32;;;3.65;;
81314;SDS011;72214;52.510;5.718;2023-08-24T07:31:17;5.85;;;3.30;;
81314;SDS011;72214;52.510;5.718;2023-08-24T07:33:47;6.68;;;4.18;;
81314;SDS011;72214;52.510;5.718;2023-08-24T07:36:16;6.32;;;4.22;;
81314;SDS011;72214;52.510;5.718;2023-08-24T07:38:48;8.02;;;4.20;;
81314;SDS011;72214;52.510;5.718;2023-08-24T07:41:17;7.55;;;4.07;;
81314;SDS011;72214;52.510;5.718;2023-08-24T07:43:46;6.28;;;3.95;;
81314;SDS011;72214;52.510;5.718;2023-08-24T07:46:16;8.40;;;3.55;;
81314;SDS011;72214;52.510;5.718;2023-08-24T07:48:45;6.65;;;4.00;;
81314;SDS011;72214;52.510;5.718;2023-08-24T07:51:15;7.13;;;4.18;;
81314;SDS011;72214;52.510;5.718;2023-08-24T07:53:47;9.05;;;4.65;;
81314;SDS011;72214;52.510;5.718;2023-08-24T07:56:17;10.10;;;4.50;;
81314;SDS011;72214;52.510;5.718;2023-08-24T07:58:48;6.93;;;4.85;;
81314;SDS011;72214;52.510;5.718;2023-08-24T08:01:17;12.55;;;5.38;;
81314;SDS011;72214;52.510;5.718;2023-08-24T08:03:47;9.15;;;4.22;;
81314;SDS011;72214;52.510;5.718;2023-08-24T08:06:16;9.63;;;4.63;;
81314;SDS011;72214;52.510;5.718;2023-08-24T08:08:50;8.63;;;4.25;;
81314;SDS011;72214;52.510;5.718;2023-08-24T08:11:19;12.23;;;5.13;;
81314;SDS011;72214;52.510;5.718;2023-08-24T08:13:49;6.88;;;4.45;;
81314;SDS011;72214;52.510;5.718;2023-08-24T08:16:18;11.27;;;4.72;;
81314;SDS011;72214;52.510;5.718;2023-08-24T08:18:47;8.90;;;4.65;;
81314;SDS011;72214;52.510;5.718;2023-08-24T08:21:16;8.43;;;4.15;;
81314;SDS011;72214;52.510;5.718;2023-08-24T08:23:46;6.03;;;4.10;;
81314;SDS011;72214;52.510;5.718;2023-08-24T08:26:18;6.85;;;3.95;;
81314;SDS011;72214;52.510;5.718;2023-08-24T08:28:47;9.55;;;4.28;;
81314;SDS011;72214;52.510;5.718;2023-08-24T08:31:16;9.80;;;5.32;;
81314;SDS011;72214;52.510;5.718;2023-08-24T08:33:46;9.07;;;4.80;;
81314;SDS011;72214;52.510;5.718;2023-08-24T08:36:15;6.97;;;4.57;;
81314;SDS011;72214;52.510;5.718;2023-08-24T08:38:44;11.18;;;4.43;;
81314;SDS011;72214;52.510;5.718;2023-08-24T08:41:14;8.00;;;4.28;;
81314;SDS011;72214;52.510;5.718;2023-08-24T08:43:50;6.78;;;4.40;;
81314;SDS011;72214;52.510;5.718;2023-08-24T08:46:19;9.50;;;4.20;;
81314;SDS011;72214;52.510;5.718;2023-08-24T08:48:50;6.95;;;4.47;;
81314;SDS011;72214;52.510;5.718;2023-08-24T08:51:20;6.18;;;3.92;;
81314;SDS011;72214;52.510;5.718;2023-08-24T08:53:50;11.57;;;4.90;;
81314;SDS011;72214;52.510;5.718;2023-08-24T08:56:22;8.98;;;4.30;;
81314;SDS011;72214;52.510;5.718;2023-08-24T08:58:52;9.50;;;4.68;;
81314;SDS011;72214;52.510;5.718;2023-08-24T09:01:23;8.18;;;4.57;;
81314;SDS011;72214;52.510;5.718;2023-08-24T09:03:53;9.85;;;4.85;;
81314;SDS011;72214;52.510;5.718;2023-08-24T09:06:23;7.78;;;4.55;;
81314;SDS011;72214;52.510;5.718;2023-08-24T09:08:52;7.38;;;4.45;;
81314;SDS011;72214;52.510;5.718;2023-08-24T09:11:24;13.85;;;4.93;;
81314;SDS011;72214;52.510;5.718;2023-08-24T09:13:53;8.65;;;4.55;;
81314;SDS011;72214;52.510;5.718;2023-08-24T09:16:23;6.18;;;4.70;;
81314;SDS011;72214;52.510;5.718;2023-08-24T09:18:57;7.13;;;4.88;;
81314;SDS011;72214;52.510;5.718;2023-08-24T09:21:26;6.85;;;4.28;;
81314;SDS011;72214;52.510;5.718;2023-08-24T09:23:55;6.25;;;4.00;;
81314;SDS011;72214;52.510;5.718;2023-08-24T09:26:30;9.35;;;4.78;;
81314;SDS011;72214;52.510;5.718;2023-08-24T09:29:05;10.15;;;4.22;;
81314;SDS011;72214;52.510;5.718;2023-08-24T09:31:40;9.40;;;4.38;;
81314;SDS011;72214;52.510;5.718;2023-08-24T09:34:12;8.95;;;4.43;;
81314;SDS011;72214;52.510;5.718;2023-08-24T09:36:41;6.43;;;4.90;;
81314;SDS011;72214;52.510;5.718;2023-08-24T09:39:10;8.73;;;4.97;;
81314;SDS011;72214;52.510;5.718;2023-08-24T09:41:43;9.73;;;5.00;;
81314;SDS011;72214;52.510;5.718;2023-08-24T09:44:13;6.13;;;4.45;;
81314;SDS011;72214;52.510;5.718;2023-08-24T09:46:43;8.75;;;3.47;;
81314;SDS011;72214;52.510;5.718;2023-08-24T09:49:12;5.00;;;3.80;;
81314;SDS011;72214;52.510;5.718;2023-08-24T09:51:42;5.68;;;3.95;;
81314;SDS011;72214;52.510;5.718;2023-08-24T09:54:11;12.02;;;4.57;;
81314;SDS011;72214;52.510;5.718;2023-08-24T09:56:47;9.13;;;4.05;;
81314;SDS011;72214;52.510;5.718;2023-08-24T10:01:51;6.53;;;4.80;;
81314;SDS011;72214;52.510;5.718;2023-08-24T10:04:23;7.55;;;5.25;;
81314;SDS011;72214;52.510;5.718;2023-08-24T10:06:55;11.15;;;4.93;;
81314;SDS011;72214;52.510;5.718;2023-08-24T10:09:30;9.00;;;4.80;;
81314;SDS011;72214;52.510;5.718;2023-08-24T10:12:06;6.88;;;4.50;;
81314;SDS011;72214;52.510;5.718;2023-08-24T10:14:39;9.80;;;5.07;;
81314;SDS011;72214;52.510;5.718;2023-08-24T10:17:20;7.68;;;4.93;;
81314;SDS011;72214;52.510;5.718;2023-08-24T10:19:50;7.75;;;4.85;;
81314;SDS011;72214;52.510;5.718;2023-08-24T10:22:20;7.22;;;5.28;;
81314;SDS011;72214;52.510;5.718;2023-08-24T10:24:49;7.85;;;4.65;;
81314;SDS011;72214;52.510;5.718;2023-08-24T10:27:24;7.43;;;4.72;;
81314;SDS011;72214;52.510;5.718;2023-08-24T10:29:56;10.52;;;4.63;;
81314;SDS011;72214;52.510;5.718;2023-08-24T10:32:26;8.45;;;4.68;;
81314;SDS011;72214;52.510;5.718;2023-08-24T10:34:55;9.02;;;4.90;;
81314;SDS011;72214;52.510;5.718;2023-08-24T10:37:25;8.70;;;4.78;;
81314;SDS011;72214;52.510;5.718;2023-08-24T10:39:56;6.65;;;4.53;;
81314;SDS011;72214;52.510;5.718;2023-08-24T10:42:28;7.72;;;4.57;;
81314;SDS011;72214;52.510;5.718;2023-08-24T10:45:12;10.85;;;4.82;;
81314;SDS011;72214;52.510;5.718;2023-08-24T10:47:45;11.73;;;5.90;;
81314;SDS011;72214;52.510;5.718;2023-08-24T10:50:15;8.80;;;4.93;;
81314;SDS011;72214;52.510;5.718;2023-08-24T10:52:44;12.25;;;5.45;;
81314;SDS011;72214;52.510;5.718;2023-08-24T10:55:23;7.97;;;5.45;;
81314;SDS011;72214;52.510;5.718;2023-08-24T10:57:58;11.45;;;6.07;;
81314;SDS011;72214;52.510;5.718;2023-08-24T11:00:29;8.25;;;5.57;;
81314;SDS011;72214;52.510;5.718;2023-08-24T11:02:58;12.20;;;5.47;;
81314;SDS011;72214;52.510;5.718;2023-08-24T11:05:28;10.00;;;5.90;;
81314;SDS011;72214;52.510;5.718;2023-08-24T11:07:59;11.93;;;5.53;;
81314;SDS011;72214;52.510;5.718;2023-08-24T11:10:30;14.70;;;6.40;;
81314;SDS011;72214;52.510;5.718;2023-08-24T11:13:08;10.30;;;6.38;;
81314;SDS011;72214;52.510;5.718;2023-08-24T11:15:39;8.77;;;5.57;;
81314;SDS011;72214;52.510;5.718;2023-08-24T11:18:19;7.47;;;5.47;;
81314;SDS011;72214;52.510;5.718;2023-08-24T11:20:51;15.50;;;5.47;;
81314;SDS011;72214;52.510;5.718;2023-08-24T11:23:22;13.18;;;6.80;;
81314;SDS011;72214;52.510;5.718;2023-08-24T11:25:53;9.48;;;6.20;;
81314;SDS011;72214;52.510;5.718;2023-08-24T11:28:26;8.05;;;4.97;;
81314;SDS011;72214;52.510;5.718;2023-08-24T11:30:57;10.02;;;6.25;;
81314;SDS011;72214;52.510;5.718;2023-08-24T11:33:27;9.23;;;6.13;;
81314;SDS011;72214;52.510;5.718;2023-08-24T11:35:58;10.13;;;6.78;;
81314;SDS011;72214;52.510;5.718;2023-08-24T11:38:37;12.45;;;7.03;;
81314;SDS011;72214;52.510;5.718;2023-08-24T11:41:10;9.73;;;7.30;;
81314;SDS011;72214;52.510;5.718;2023-08-24T11:43:43;10.07;;;7.10;;
81314;SDS011;72214;52.510;5.718;2023-08-24T11:46:13;11.80;;;7.25;;
81314;SDS011;72214;52.510;5.718;2023-08-24T11:48:44;10.85;;;8.32;;
81314;SDS011;72214;52.510;5.718;2023-08-24T11:51:14;10.23;;;7.68;;
81314;SDS011;72214;52.510;5.718;2023-08-24T11:53:44;13.73;;;7.47;;
81314;SDS011;72214;52.510;5.718;2023-08-24T11:56:14;12.15;;;7.95;;
81314;SDS011;72214;52.510;5.718;2023-08-24T11:58:47;11.65;;;8.90;;
81314;SDS011;72214;52.510;5.718;2023-08-24T12:01:17;10.35;;;7.63;;
81314;SDS011;72214;52.510;5.718;2023-08-24T12:03:47;12.65;;;8.15;;
81314;SDS011;72214;52.510;5.718;2023-08-24T12:06:16;12.73;;;9.43;;
81314;SDS011;72214;52.510;5.718;2023-08-24T12:08:46;13.82;;;9.25;;
81314;SDS011;72214;52.510;5.718;2023-08-24T12:11:16;11.52;;;7.55;;
81314;SDS011;72214;52.510;5.718;2023-08-24T12:13:54;13.55;;;9.48;;
81314;SDS011;72214;52.510;5.718;2023-08-24T12:16:23;12.63;;;8.65;;
81314;SDS011;72214;52.510;5.718;2023-08-24T12:18:53;12.70;;;8.27;;
81314;SDS011;72214;52.510;5.718;2023-08-24T12:21:25;13.27;;;8.52;;
81314;SDS011;72214;52.510;5.718;2023-08-24T12:23:55;11.95;;;8.25;;
81314;SDS011;72214;52.510;5.718;2023-08-24T12:26:25;11.77;;;8.40;;
81314;SDS011;72214;52.510;5.718;2023-08-24T12:28:59;13.55;;;8.35;;
81314;SDS011;72214;52.510;5.718;2023-08-24T12:31:29;17.00;;;8.85;;
81314;SDS011;72214;52.510;5.718;2023-08-24T12:33:59;14.63;;;8.63;;
81314;SDS011;72214;52.510;5.718;2023-08-24T12:36:29;15.13;;;10.25;;
81314;SDS011;72214;52.510;5.718;2023-08-24T12:38:59;13.70;;;7.90;;
81314;SDS011;72214;52.510;5.718;2023-08-24T12:41:29;15.13;;;9.20;;
81314;SDS011;72214;52.510;5.718;2023-08-24T12:44:01;16.38;;;8.68;;
81314;SDS011;72214;52.510;5.718;2023-08-24T12:46:33;13.43;;;8.80;;
81314;SDS011;72214;52.510;5.718;2023-08-24T12:49:03;13.90;;;8.95;;
81314;SDS011;72214;52.510;5.718;2023-08-24T12:51:32;12.55;;;9.63;;
81314;SDS011;72214;52.510;5.718;2023-08-24T12:54:02;15.02;;;8.85;;
81314;SDS011;72214;52.510;5.718;2023-08-24T12:56:31;11.57;;;8.25;;
81314;SDS011;72214;52.510;5.718;2023-08-24T12:59:03;11.88;;;8.45;;
81314;SDS011;72214;52.510;5.718;2023-08-24T13:01:32;18.17;;;9.77;;
81314;SDS011;72214;52.510;5.718;2023-08-24T13:04:02;15.45;;;8.48;;
81314;SDS011;72214;52.510;5.718;2023-08-24T13:06:32;13.45;;;8.82;;
81314;SDS011;72214;52.510;5.718;2023-08-24T13:09:01;15.40;;;9.80;;
81314;SDS011;72214;52.510;5.718;2023-08-24T13:11:32;17.67;;;10.27;;
81314;SDS011;72214;52.510;5.718;2023-08-24T13:14:03;15.07;;;10.13;;
81314;SDS011;72214;52.510;5.718;2023-08-24T13:16:33;13.75;;;8.63;;
81314;SDS011;72214;52.510;5.718;2023-08-24T13:19:02;15.02;;;9.38;;
81314;SDS011;72214;52.510;5.718;2023-08-24T13:21:31;11.57;;;9.43;;
81314;SDS011;72214;52.510;5.718;2023-08-24T13:24:00;13.75;;;8.77;;
81314;SDS011;72214;52.510;5.718;2023-08-24T13:26:29;15.18;;;9.25;;
81314;SDS011;72214;52.510;5.718;2023-08-24T13:28:59;17.35;;;9.50;;
81314;SDS011;72214;52.510;5.718;2023-08-24T13:31:32;14.15;;;9.13;;
81314;SDS011;72214;52.510;5.718;2023-08-24T13:34:01;13.70;;;9.45;;
81314;SDS011;72214;52.510;5.718;2023-08-24T13:36:33;13.18;;;8.68;;
81314;SDS011;72214;52.510;5.718;2023-08-24T13:39:02;16.75;;;9.07;;
81314;SDS011;72214;52.510;5.718;2023-08-24T13:41:32;17.80;;;9.02;;
81314;SDS011;72214;52.510;5.718;2023-08-24T13:44:01;17.50;;;9.60;;
81314;SDS011;72214;52.510;5.718;2023-08-24T13:46:33;14.18;;;9.77;;
81314;SDS011;72214;52.510;5.718;2023-08-24T13:49:02;13.38;;;9.60;;
81314;SDS011;72214;52.510;5.718;2023-08-24T13:51:31;17.05;;;9.75;;
81314;SDS011;72214;52.510;5.718;2023-08-24T13:54:00;15.23;;;9.27;;
81314;SDS011;72214;52.510;5.718;2023-08-24T13:56:29;15.05;;;9.27;;
81314;SDS011;72214;52.510;5.718;2023-08-24T13:58:59;12.35;;;8.00;;
81314;SDS011;72214;52.510;5.718;2023-08-24T14:01:28;12.90;;;7.47;;
81314;SDS011;72214;52.510;5.718;2023-08-24T14:04:01;15.35;;;9.80;;
81314;SDS011;72214;52.510;5.718;2023-08-24T14:06:31;14.15;;;9.35;;
81314;SDS011;72214;52.510;5.718;2023-08-24T14:09:02;15.18;;;9.05;;
81314;SDS011;72214;52.510;5.718;2023-08-24T14:11:32;13.52;;;9.00;;
81314;SDS011;72214;52.510;5.718;2023-08-24T14:14:01;12.13;;;8.30;;
81314;SDS011;72214;52.510;5.718;2023-08-24T14:16:30;12.63;;;8.68;;
81314;SDS011;72214;52.510;5.718;2023-08-24T14:19:02;15.98;;;8.98;;
81314;SDS011;72214;52.510;5.718;2023-08-24T14:21:31;14.05;;;9.27;;
81314;SDS011;72214;52.510;5.718;2023-08-24T14:24:01;13.38;;;9.57;;
81314;SDS011;72214;52.510;5.718;2023-08-24T14:26:30;16.30;;;9.65;;
81314;SDS011;72214;52.510;5.718;2023-08-24T14:28:59;14.18;;;8.73;;
81314;SDS011;72214;52.510;5.718;2023-08-24T14:31:29;16.13;;;9.50;;
81314;SDS011;72214;52.510;5.718;2023-08-24T14:33:58;13.60;;;9.63;;
81314;SDS011;72214;52.510;5.718;2023-08-24T14:36:30;15.18;;;10.18;;
81314;SDS011;72214;52.510;5.718;2023-08-24T14:38:59;18.48;;;9.13;;
81314;SDS011;72214;52.510;5.718;2023-08-24T14:41:29;16.35;;;9.82;;
81314;SDS011;72214;52.510;5.718;2023-08-24T14:43:58;15.18;;;9.77;;
81314;SDS011;72214;52.510;5.718;2023-08-24T14:46:27;15.15;;;9.93;;
81314;SDS011;72214;52.510;5.718;2023-08-24T14:48:56;17.15;;;10.63;;
81314;SDS011;72214;52.510;5.718;2023-08-24T14:51:25;13.40;;;9.95;;
81314;SDS011;72214;52.510;5.718;2023-08-24T14:53:57;12.52;;;8.95;;
81314;SDS011;72214;52.510;5.718;2023-08-24T14:56:26;12.80;;;9.52;;
81314;SDS011;72214;52.510;5.718;2023-08-24T14:58:56;11.95;;;8.82;;
81314;SDS011;72214;52.510;5.718;2023-08-24T15:01:25;11.95;;;9.23;;
81314;SDS011;72214;52.510;5.718;2023-08-24T15:03:54;17.98;;;9.98;;